createdAt,value
2023-06-05T00:02:14.945Z,4.40
2023-06-05T00:04:42.056Z,3.93
2023-06-05T00:07:08.858Z,4.90
2023-06-05T00:09:35.566Z,3.80
2023-06-05T00:12:02.583Z,3.70
2023-06-05T00:14:29.443Z,5.57
2023-06-05T00:16:57.260Z,5.40
2023-06-05T00:19:24.173Z,4.20
2023-06-05T00:21:52.472Z,4.10
2023-06-05T00:24:19.192Z,4.70
2023-06-05T00:26:46.182Z,3.83
2023-06-05T00:29:13.006Z,4.10
2023-06-05T00:31:39.931Z,5.17
2023-06-05T00:34:06.558Z,4.53
2023-06-05T00:36:33.709Z,3.97
2023-06-05T00:39:00.609Z,4.33
2023-06-05T00:41:27.187Z,4.77
2023-06-05T00:43:53.758Z,4.67
2023-06-05T00:46:20.522Z,3.63
2023-06-05T00:48:49.528Z,4.27
2023-06-05T00:51:17.000Z,3.93
2023-06-05T00:53:45.971Z,4.83
2023-06-05T00:56:12.782Z,5.00
2023-06-05T00:58:39.415Z,4.77
2023-06-05T01:01:06.966Z,4.00
2023-06-05T01:03:36.950Z,4.23
2023-06-05T01:06:04.556Z,4.63
2023-06-05T01:08:42.661Z,4.53
2023-06-05T01:11:28.167Z,5.30
2023-06-05T01:14:09.618Z,4.50
2023-06-05T01:16:37.469Z,3.90
2023-06-05T01:19:04.392Z,5.40
2023-06-05T01:21:32.300Z,4.73
2023-06-05T01:23:59.957Z,5.70
2023-06-05T01:26:37.787Z,5.77
2023-06-05T01:29:06.813Z,5.70
2023-06-05T01:31:37.948Z,4.93
2023-06-05T01:34:08.204Z,5.70
2023-06-05T01:36:38.105Z,5.50
2023-06-05T01:39:06.156Z,5.50
2023-06-05T01:41:33.950Z,5.00
2023-06-05T01:44:00.998Z,5.20
2023-06-05T01:46:27.591Z,6.23
2023-06-05T01:48:55.650Z,5.43
2023-06-05T01:51:22.553Z,6.57
2023-06-05T01:53:49.899Z,5.80
2023-06-05T01:56:20.246Z,5.83
2023-06-05T01:58:49.810Z,5.47
2023-06-05T02:01:17.795Z,6.57
2023-06-05T02:03:49.452Z,5.80
2023-06-05T02:06:17.939Z,6.70
2023-06-05T02:08:44.899Z,5.83
2023-06-05T02:11:12.669Z,6.77
2023-06-05T02:13:42.503Z,5.93
2023-06-05T02:16:11.352Z,7.03
2023-06-05T02:18:41.278Z,7.37
2023-06-05T02:21:08.294Z,7.43
2023-06-05T02:23:35.055Z,6.30
2023-06-05T02:26:01.591Z,6.27
2023-06-05T02:28:28.629Z,6.90
2023-06-05T02:30:56.063Z,6.63
2023-06-05T02:33:22.991Z,6.13
2023-06-05T02:35:49.634Z,6.33
2023-06-05T02:38:16.512Z,5.73
2023-06-05T02:40:43.468Z,7.20
2023-06-05T02:43:12.360Z,7.30
2023-06-05T02:45:39.068Z,6.60
2023-06-05T02:48:06.040Z,6.80
2023-06-05T02:50:32.954Z,6.73
2023-06-05T02:53:03.651Z,8.33
2023-06-05T02:55:34.122Z,7.33
2023-06-05T02:58:06.501Z,6.93
2023-06-05T03:00:41.273Z,7.80
2023-06-05T03:03:08.447Z,8.10
2023-06-05T03:05:36.746Z,6.60
2023-06-05T03:08:09.531Z,7.77
2023-06-05T03:10:36.316Z,7.63
2023-06-05T03:13:03.771Z,8.60
2023-06-05T03:15:35.541Z,9.00
2023-06-05T03:18:02.500Z,7.50
2023-06-05T03:20:30.249Z,10.10
2023-06-05T03:22:58.016Z,8.97
2023-06-05T03:25:25.139Z,8.47
2023-06-05T03:27:55.260Z,7.63
2023-06-05T03:30:24.675Z,8.93
2023-06-05T03:32:54.284Z,7.80
2023-06-05T03:35:21.035Z,10.57
2023-06-05T03:37:48.097Z,7.90
2023-06-05T03:40:15.559Z,8.33
2023-06-05T03:42:42.840Z,8.77
2023-06-05T03:45:10.165Z,7.97
2023-06-05T03:47:38.900Z,8.87
2023-06-05T03:50:08.144Z,9.00
2023-06-05T03:52:40.544Z,9.00
2023-06-05T03:55:11.736Z,9.73
2023-06-05T03:57:39.780Z,8.73
2023-06-05T04:00:11.074Z,9.77
2023-06-05T04:02:40.822Z,7.77
2023-06-05T04:05:13.249Z,10.50
2023-06-05T04:07:40.946Z,8.50
2023-06-05T04:10:08.602Z,10.03
2023-06-05T04:12:35.413Z,8.57
2023-06-05T04:15:03.831Z,8.37
2023-06-05T04:17:30.721Z,8.40
2023-06-05T04:19:57.750Z,8.23
2023-06-05T04:22:26.913Z,8.40
2023-06-05T04:24:53.528Z,9.97
2023-06-05T04:27:21.293Z,8.97
2023-06-05T04:29:51.258Z,8.90
2023-06-05T04:32:18.475Z,8.33
2023-06-05T04:34:45.238Z,9.03
2023-06-05T04:37:11.765Z,7.90
2023-06-05T04:39:38.558Z,9.57
2023-06-05T04:42:15.051Z,8.47
2023-06-05T04:44:44.050Z,9.10
2023-06-05T04:47:11.090Z,8.60
2023-06-05T04:49:39.562Z,8.87
2023-06-05T04:52:07.383Z,9.07
2023-06-05T04:54:34.682Z,7.93
2023-06-05T04:57:02.533Z,8.63
2023-06-05T04:59:29.325Z,8.53
2023-06-05T05:01:56.431Z,8.77
2023-06-05T05:04:24.813Z,7.30
2023-06-05T05:06:54.363Z,8.00
2023-06-05T05:09:22.543Z,8.73
2023-06-05T05:11:50.305Z,7.67
2023-06-05T05:14:18.666Z,8.67
2023-06-05T05:16:46.404Z,7.07
2023-06-05T05:19:13.561Z,9.20
2023-06-05T05:21:41.510Z,7.13
2023-06-05T05:24:09.691Z,8.50
2023-06-05T05:26:36.491Z,8.20
2023-06-05T05:29:03.363Z,8.67
2023-06-05T05:31:30.860Z,7.43
2023-06-05T05:33:58.047Z,7.20
2023-06-05T05:36:28.893Z,7.40
2023-06-05T05:38:56.924Z,8.10
2023-06-05T05:41:49.865Z,6.73
2023-06-05T05:44:20.778Z,7.37
2023-06-05T05:46:55.721Z,5.70
2023-06-05T05:49:25.320Z,6.57
2023-06-05T05:51:51.903Z,6.17
2023-06-05T05:54:18.837Z,6.07
2023-06-05T05:56:45.594Z,6.23
2023-06-05T05:59:12.402Z,5.40
2023-06-05T06:01:39.577Z,4.30
2023-06-05T06:04:06.648Z,5.30
2023-06-05T06:06:34.487Z,6.10
2023-06-05T06:09:03.525Z,4.93
2023-06-05T06:11:30.318Z,5.60
2023-06-05T06:13:57.094Z,6.43
2023-06-05T06:16:23.988Z,5.97
2023-06-05T06:18:51.044Z,5.90
2023-06-05T06:21:18.095Z,6.20
2023-06-05T06:23:46.021Z,5.00
2023-06-05T06:26:15.552Z,5.37
2023-06-05T06:28:42.643Z,6.20
2023-06-05T06:31:10.080Z,5.47
2023-06-05T06:33:37.539Z,5.60
2023-06-05T06:36:04.808Z,6.17
2023-06-05T06:38:34.506Z,6.03
2023-06-05T06:41:01.092Z,5.37
2023-06-05T06:43:27.806Z,5.53
2023-06-05T06:46:02.962Z,5.53
2023-06-05T06:48:29.631Z,5.13
2023-06-05T06:50:56.419Z,5.90
2023-06-05T06:53:23.056Z,5.13
2023-06-05T06:55:49.814Z,5.13
2023-06-05T06:58:17.373Z,4.60
2023-06-05T07:00:44.009Z,4.93
2023-06-05T07:03:11.370Z,5.07
2023-06-05T07:05:38.986Z,4.20
2023-06-05T07:08:06.668Z,5.53
2023-06-05T07:10:33.292Z,5.23
2023-06-05T07:12:59.809Z,4.30
2023-06-05T07:15:26.700Z,4.47
2023-06-05T07:17:53.279Z,4.90
2023-06-05T07:20:20.021Z,5.07
2023-06-05T07:22:46.962Z,4.40
2023-06-05T07:25:15.249Z,3.37
2023-06-05T07:27:42.052Z,4.53
2023-06-05T07:30:09.237Z,5.77
2023-06-05T07:32:35.943Z,4.20
2023-06-05T07:35:03.243Z,4.90
2023-06-05T07:37:30.070Z,3.80
2023-06-05T07:39:56.769Z,4.13
2023-06-05T07:42:23.525Z,4.30
2023-06-05T07:44:50.257Z,3.80
2023-06-05T07:47:17.298Z,4.20
2023-06-05T07:49:44.035Z,3.77
2023-06-05T07:52:11.257Z,4.33
2023-06-05T07:54:38.947Z,4.87
2023-06-05T07:57:06.122Z,4.40
2023-06-05T07:59:33.594Z,4.87
2023-06-05T08:02:00.988Z,4.00
2023-06-05T08:04:28.634Z,4.63
2023-06-05T08:06:55.680Z,4.50
2023-06-05T08:09:22.306Z,4.23
2023-06-05T08:11:49.470Z,4.87
2023-06-05T08:14:16.083Z,4.57
2023-06-05T08:16:42.905Z,4.53
2023-06-05T08:19:09.649Z,5.00
2023-06-05T08:21:38.338Z,4.23
2023-06-05T08:24:05.450Z,4.63
2023-06-05T08:26:32.481Z,4.20
2023-06-05T08:29:00.920Z,5.30
2023-06-05T08:31:27.485Z,5.37
2023-06-05T08:33:54.127Z,4.47
2023-06-05T08:36:22.345Z,5.73
2023-06-05T08:38:48.907Z,4.27
2023-06-05T08:41:17.321Z,4.90
2023-06-05T08:43:48.106Z,4.97
2023-06-05T08:46:15.081Z,4.30
2023-06-05T08:48:42.845Z,3.97
2023-06-05T08:51:12.023Z,5.60
2023-06-05T08:53:40.676Z,5.10
2023-06-05T08:56:08.865Z,5.00
2023-06-05T08:58:36.431Z,5.00
2023-06-05T09:01:03.280Z,4.67
2023-06-05T09:03:30.160Z,6.40
2023-06-05T09:05:56.890Z,5.93
2023-06-05T09:08:31.740Z,5.67
2023-06-05T09:11:17.274Z,6.33
2023-06-05T09:13:47.360Z,5.80
2023-06-05T09:16:13.978Z,4.63
2023-06-05T09:18:54.603Z,4.70
2023-06-05T09:21:21.492Z,5.37
2023-06-05T09:23:48.537Z,6.37
2023-06-05T09:26:16.531Z,5.43
2023-06-05T09:28:55.935Z,4.50
2023-06-05T09:31:25.558Z,4.90
2023-06-05T09:33:56.695Z,5.70
2023-06-05T09:36:24.777Z,4.57
2023-06-05T09:38:51.910Z,5.20
2023-06-05T09:41:20.221Z,5.10
2023-06-05T09:43:48.429Z,4.17
2023-06-05T09:46:17.089Z,5.33
2023-06-05T09:48:45.019Z,4.73
2023-06-05T09:51:13.884Z,5.20
2023-06-05T09:53:44.071Z,4.17
2023-06-05T09:56:12.654Z,5.20
2023-06-05T09:58:40.045Z,4.83
2023-06-05T10:01:08.973Z,5.03
2023-06-05T10:03:37.718Z,3.83
2023-06-05T10:06:06.003Z,4.83
2023-06-05T10:08:32.939Z,3.83
2023-06-05T10:10:59.814Z,4.40
2023-06-05T10:13:27.474Z,3.90
2023-06-05T10:15:55.592Z,4.80
2023-06-05T10:18:23.194Z,4.70
2023-06-05T10:20:49.771Z,3.80
2023-06-05T10:23:18.101Z,3.70
2023-06-05T10:25:46.031Z,3.87
2023-06-05T10:28:35.899Z,4.27
2023-06-05T10:31:02.571Z,3.97
2023-06-05T10:33:35.344Z,4.50
2023-06-05T10:36:12.875Z,3.70
2023-06-05T10:38:40.445Z,3.37
2023-06-05T10:41:07.316Z,2.67
2023-06-05T10:43:46.290Z,4.27
2023-06-05T10:46:28.408Z,3.80
2023-06-05T10:49:10.679Z,3.40
2023-06-05T10:51:44.550Z,3.63
2023-06-05T10:54:12.852Z,4.00
2023-06-05T10:56:51.877Z,3.47
2023-06-05T10:59:21.324Z,3.50
2023-06-05T11:02:07.419Z,3.23
2023-06-05T11:04:49.934Z,3.37
2023-06-05T11:07:18.159Z,3.20
2023-06-05T11:10:03.928Z,2.87
2023-06-05T11:12:36.666Z,3.10
2023-06-05T11:15:04.718Z,2.73
2023-06-05T11:17:32.685Z,2.97
2023-06-05T11:20:00.948Z,2.13
2023-06-05T11:22:28.231Z,3.40
2023-06-05T11:25:13.642Z,2.60
2023-06-05T11:27:44.773Z,3.30
2023-06-05T11:30:18.212Z,1.70
2023-06-05T11:32:49.293Z,3.40
2023-06-05T11:35:17.442Z,2.20
2023-06-05T11:37:59.250Z,2.90
2023-06-05T11:40:29.737Z,2.67
2023-06-05T11:43:02.581Z,3.20
2023-06-05T11:45:29.325Z,2.77
2023-06-05T11:48:04.770Z,2.23
2023-06-05T11:50:32.298Z,3.43
2023-06-05T11:53:05.133Z,2.40
2023-06-05T11:55:44.354Z,2.80
2023-06-05T11:58:11.575Z,2.97
2023-06-05T12:00:38.693Z,2.70
2023-06-05T12:03:18.703Z,2.80
2023-06-05T12:05:46.587Z,2.90
2023-06-05T12:08:26.730Z,3.00
2023-06-05T12:10:54.412Z,2.80
2023-06-05T12:13:21.588Z,3.10
2023-06-05T12:15:59.589Z,2.73
2023-06-05T12:18:35.318Z,3.30
2023-06-05T12:21:02.743Z,3.00
2023-06-05T12:23:30.437Z,2.53
2023-06-05T12:26:02.332Z,3.00
2023-06-05T12:28:29.616Z,3.87
2023-06-05T12:30:56.462Z,3.33
2023-06-05T12:33:26.421Z,2.80
2023-06-05T12:36:07.209Z,3.07
2023-06-05T12:38:41.366Z,2.50
2023-06-05T12:41:08.792Z,2.73
2023-06-05T12:43:36.178Z,3.03
2023-06-05T12:46:02.965Z,3.17
2023-06-05T12:48:29.796Z,3.60
2023-06-05T12:50:57.535Z,3.00
2023-06-05T12:53:24.396Z,2.80
2023-06-05T12:55:51.271Z,3.13
2023-06-05T12:58:17.950Z,3.47
2023-06-05T13:00:45.491Z,2.97
2023-06-05T13:03:13.512Z,3.13
2023-06-05T13:05:40.991Z,2.70
2023-06-05T13:08:07.902Z,2.60
2023-06-05T13:10:34.644Z,2.87
2023-06-05T13:13:01.384Z,2.50
2023-06-05T13:15:27.858Z,2.97
2023-06-05T13:17:54.604Z,2.60
2023-06-05T13:20:21.499Z,2.63
2023-06-05T13:22:48.629Z,3.10
2023-06-05T13:25:16.016Z,3.03
2023-06-05T13:27:43.185Z,2.40
2023-06-05T13:30:09.933Z,2.23
2023-06-05T13:32:39.804Z,2.93
2023-06-05T13:35:08.635Z,2.97
2023-06-05T13:37:35.433Z,3.37
2023-06-05T13:40:04.025Z,3.03
2023-06-05T13:42:31.407Z,2.63
2023-06-05T13:44:58.131Z,2.53
2023-06-05T13:47:24.850Z,3.00
2023-06-05T13:49:52.416Z,3.10
2023-06-05T13:52:20.392Z,2.70
2023-06-05T13:54:47.104Z,2.70
2023-06-05T13:57:14.662Z,2.80
2023-06-05T13:59:41.332Z,3.10
2023-06-05T14:02:08.078Z,2.73
2023-06-05T14:04:36.524Z,2.33
2023-06-05T14:07:04.433Z,3.07
2023-06-05T14:09:31.144Z,2.37
2023-06-05T14:11:58.371Z,2.10
2023-06-05T14:14:25.863Z,2.80
2023-06-05T14:16:52.443Z,2.97
2023-06-05T14:19:19.238Z,3.07
2023-06-05T14:21:46.273Z,2.17
2023-06-05T14:24:13.753Z,2.60
2023-06-05T14:26:40.853Z,2.27
2023-06-05T14:29:07.786Z,2.50
2023-06-05T14:31:35.328Z,2.27
2023-06-05T14:34:03.902Z,2.53
2023-06-05T14:36:30.677Z,2.83
2023-06-05T14:38:57.503Z,2.67
2023-06-05T14:41:24.289Z,3.07
2023-06-05T14:43:50.972Z,2.60
2023-06-05T14:46:19.019Z,2.27
2023-06-05T14:48:46.134Z,2.70
2023-06-05T14:51:12.682Z,2.50
2023-06-05T14:53:39.337Z,3.83
2023-06-05T14:56:06.891Z,2.73
2023-06-05T14:58:34.727Z,3.37
2023-06-05T15:01:01.501Z,3.27
2023-06-05T15:03:28.707Z,2.70
2023-06-05T15:05:55.382Z,2.70
2023-06-05T15:08:23.187Z,2.80
2023-06-05T15:10:50.504Z,2.67
2023-06-05T15:13:17.609Z,2.77
2023-06-05T15:15:44.210Z,4.43
2023-06-05T15:18:10.823Z,3.20
2023-06-05T15:20:37.791Z,2.97
2023-06-05T15:23:15.531Z,3.07
2023-06-05T15:25:43.110Z,3.30
2023-06-05T15:28:09.649Z,3.27
2023-06-05T15:30:36.489Z,2.90
2023-06-05T15:33:04.322Z,3.57
2023-06-05T15:35:31.406Z,2.73
2023-06-05T15:37:58.189Z,3.03
2023-06-05T15:40:25.170Z,5.60
2023-06-05T15:43:05.712Z,6.33
2023-06-05T15:45:32.527Z,3.17
2023-06-05T15:47:59.553Z,2.70
2023-06-05T15:50:26.664Z,2.70
2023-06-05T15:52:54.699Z,2.67
2023-06-05T15:55:21.834Z,2.77
2023-06-05T15:57:51.483Z,2.80
2023-06-05T16:00:21.443Z,3.10
2023-06-05T16:02:48.086Z,2.47
2023-06-05T16:05:14.951Z,3.23
2023-06-05T16:07:41.518Z,3.03
2023-06-05T16:10:08.441Z,2.70
2023-06-05T16:12:35.037Z,3.40
2023-06-05T16:15:01.732Z,2.90
2023-06-05T16:17:28.771Z,2.53
2023-06-05T16:19:57.765Z,2.60
2023-06-05T16:22:28.394Z,3.10
2023-06-05T16:24:56.205Z,2.60
2023-06-05T16:27:23.009Z,2.67
2023-06-05T16:29:50.251Z,2.50
2023-06-05T16:32:16.820Z,2.70
2023-06-05T16:34:44.046Z,3.67
2023-06-05T16:37:10.738Z,3.33
2023-06-05T16:39:37.447Z,2.93
2023-06-05T16:42:05.646Z,2.97
2023-06-05T16:44:36.281Z,2.67
2023-06-05T16:47:03.892Z,3.20
2023-06-05T16:49:31.242Z,2.90
2023-06-05T16:51:58.116Z,3.13
2023-06-05T16:54:25.296Z,3.10
2023-06-05T16:56:51.899Z,2.60
2023-06-05T16:59:18.554Z,3.73
2023-06-05T17:01:45.895Z,4.03
2023-06-05T17:04:13.093Z,3.90
2023-06-05T17:06:41.123Z,3.87
2023-06-05T17:09:08.673Z,3.43
2023-06-05T17:11:35.313Z,3.30
2023-06-05T17:14:01.822Z,3.20
2023-06-05T17:16:28.961Z,4.20
2023-06-05T17:18:55.842Z,3.10
2023-06-05T17:21:24.930Z,3.33
2023-06-05T17:23:52.367Z,3.87
2023-06-05T17:26:19.103Z,3.40
2023-06-05T17:28:45.923Z,4.10
2023-06-05T17:31:12.834Z,3.63
2023-06-05T17:33:39.993Z,3.40
2023-06-05T17:36:06.827Z,3.70
2023-06-05T17:38:33.405Z,3.60
2023-06-05T17:41:00.037Z,4.20
2023-06-05T17:43:26.698Z,3.90
2023-06-05T17:45:53.438Z,3.63
2023-06-05T17:48:20.862Z,3.73
2023-06-05T17:50:51.228Z,4.07
2023-06-05T17:53:23.614Z,3.77
2023-06-05T17:55:53.806Z,4.30
2023-06-05T17:58:22.010Z,4.63
2023-06-05T18:00:49.640Z,4.73
2023-06-05T18:03:16.694Z,3.50
2023-06-05T18:05:43.532Z,4.10
2023-06-05T18:08:13.792Z,4.40
2023-06-05T18:10:42.585Z,4.60
2023-06-05T18:13:09.897Z,3.73
2023-06-05T18:15:36.811Z,4.17
2023-06-05T18:18:03.471Z,3.90
2023-06-05T18:20:33.367Z,4.77
2023-06-05T18:23:01.845Z,4.07
2023-06-05T18:25:29.822Z,3.37
2023-06-05T18:27:58.314Z,4.60
2023-06-05T18:30:25.436Z,3.60
2023-06-05T18:32:53.232Z,3.97
2023-06-05T18:35:21.691Z,3.50
2023-06-05T18:37:49.856Z,4.20
2023-06-05T18:40:17.856Z,3.50
2023-06-05T18:42:44.489Z,3.80
2023-06-05T18:45:12.974Z,4.03
2023-06-05T18:47:40.526Z,4.30
2023-06-05T18:50:09.912Z,3.20
2023-06-05T18:52:40.420Z,4.10
2023-06-05T18:55:08.544Z,3.40
2023-06-05T18:57:35.548Z,3.60
2023-06-05T19:00:02.556Z,4.20
2023-06-05T19:02:31.158Z,3.30
2023-06-05T19:04:58.263Z,4.17
2023-06-05T19:07:24.806Z,3.80
2023-06-05T19:09:51.634Z,3.50
2023-06-05T19:12:18.303Z,4.20
2023-06-05T19:14:45.007Z,4.23
2023-06-05T19:17:11.710Z,3.90
2023-06-05T19:19:38.371Z,4.13
2023-06-05T19:22:05.102Z,4.73
2023-06-05T19:24:31.695Z,3.43
2023-06-05T19:26:58.834Z,3.53
2023-06-05T19:29:25.374Z,3.83
2023-06-05T19:31:53.020Z,3.33
2023-06-05T19:34:20.485Z,3.47
2023-06-05T19:36:47.358Z,3.80
2023-06-05T19:39:14.841Z,4.83
2023-06-05T19:41:41.425Z,3.50
2023-06-05T19:44:08.283Z,3.70
2023-06-05T19:46:38.181Z,3.60
2023-06-05T19:49:05.437Z,3.53
2023-06-05T19:51:32.549Z,3.60
2023-06-05T19:54:00.045Z,4.10
2023-06-05T19:56:27.900Z,3.30
2023-06-05T19:58:54.493Z,3.87
2023-06-05T20:01:21.350Z,3.23
2023-06-05T20:03:48.176Z,3.20
2023-06-05T20:06:15.072Z,3.80
2023-06-05T20:08:41.798Z,4.53
2023-06-05T20:11:09.109Z,4.23
2023-06-05T20:13:37.043Z,3.80
2023-06-05T20:16:04.485Z,3.30
2023-06-05T20:18:37.726Z,3.97
2023-06-05T20:21:05.690Z,3.67
2023-06-05T20:23:33.464Z,3.70
2023-06-05T20:26:01.903Z,3.53
2023-06-05T20:28:30.489Z,3.00
2023-06-05T20:30:57.075Z,4.17
2023-06-05T20:33:24.009Z,3.30
2023-06-05T20:35:52.766Z,3.83
2023-06-05T20:38:21.650Z,4.77
2023-06-05T20:40:51.669Z,5.03
2023-06-05T20:43:18.544Z,3.30
2023-06-05T20:45:46.213Z,4.00
2023-06-05T20:48:17.036Z,4.40
2023-06-05T20:50:48.847Z,4.57
2023-06-05T20:53:18.747Z,4.03
2023-06-05T20:55:46.314Z,3.60
2023-06-05T20:58:13.303Z,3.77
2023-06-05T21:00:40.429Z,4.90
2023-06-05T21:03:11.241Z,4.60
2023-06-05T21:05:38.909Z,4.43
2023-06-05T21:08:05.839Z,4.70
2023-06-05T21:10:32.587Z,4.40
2023-06-05T21:12:59.271Z,4.43
2023-06-05T21:15:27.722Z,4.40
2023-06-05T21:17:54.360Z,4.53
2023-06-05T21:20:21.413Z,3.77
2023-06-05T21:22:48.619Z,4.07
2023-06-05T21:25:15.870Z,5.30
2023-06-05T21:27:42.852Z,4.87
2023-06-05T21:30:09.814Z,3.77
2023-06-05T21:32:37.261Z,4.80
2023-06-05T21:35:03.967Z,4.90
2023-06-05T21:37:30.601Z,3.87
2023-06-05T21:39:57.458Z,6.63
2023-06-05T21:42:23.949Z,5.87
2023-06-05T21:44:51.316Z,5.70
2023-06-05T21:47:18.756Z,4.50
2023-06-05T21:49:45.745Z,4.93
2023-06-05T21:52:16.704Z,4.90
2023-06-05T21:54:43.650Z,5.80
2023-06-05T21:57:11.370Z,4.83
2023-06-05T21:59:38.370Z,4.53
2023-06-05T22:02:05.813Z,6.00
2023-06-05T22:04:32.773Z,5.10
2023-06-05T22:06:59.479Z,4.90
2023-06-05T22:09:26.373Z,5.10
2023-06-05T22:11:53.152Z,5.20
2023-06-05T22:14:23.271Z,5.87
2023-06-05T22:16:51.613Z,5.30
2023-06-05T22:19:21.663Z,6.10
2023-06-05T22:21:49.066Z,6.60
2023-06-05T22:24:16.673Z,5.77
2023-06-05T22:26:43.930Z,5.40
2023-06-05T22:29:10.892Z,6.57
2023-06-05T22:31:37.615Z,5.97
2023-06-05T22:34:05.431Z,7.17
2023-06-05T22:36:32.417Z,6.50
2023-06-05T22:38:59.442Z,6.87
2023-06-05T22:41:26.288Z,5.77
2023-06-05T22:43:52.904Z,7.70
2023-06-05T22:46:19.962Z,6.00
2023-06-05T22:48:49.879Z,6.90
2023-06-05T22:51:20.365Z,7.23
2023-06-05T22:53:47.382Z,6.50
2023-06-05T22:56:14.112Z,7.47
2023-06-05T22:58:40.814Z,7.77
2023-06-05T23:01:08.764Z,7.20
2023-06-05T23:03:35.555Z,8.73
2023-06-05T23:06:02.596Z,7.83
2023-06-05T23:08:29.962Z,8.10
2023-06-05T23:10:57.451Z,9.60
2023-06-05T23:13:24.440Z,8.40
2023-06-05T23:15:53.842Z,9.43
2023-06-05T23:18:22.119Z,7.87
2023-06-05T23:20:49.135Z,8.30
2023-06-05T23:23:15.788Z,8.23
2023-06-05T23:25:43.009Z,8.67
2023-06-05T23:28:10.910Z,8.83
2023-06-05T23:30:40.783Z,9.50
2023-06-05T23:33:08.222Z,10.10
2023-06-05T23:35:34.862Z,9.47
2023-06-05T23:38:01.368Z,10.37
2023-06-05T23:40:28.873Z,12.13
2023-06-05T23:42:59.417Z,11.17
2023-06-05T23:45:32.688Z,11.20
2023-06-05T23:48:00.099Z,9.77
2023-06-05T23:50:27.042Z,10.00
2023-06-05T23:52:54.583Z,11.47
2023-06-05T23:55:25.358Z,11.80
2023-06-05T23:57:52.867Z,10.27
